Time;durP1;ratioP1;P1;durP2;ratioP2;P2;SDS_P1;SDS_P2;PMS_P1;PMS_P2;Temp;Humidity;BMP_temperature;BMP_pressure;BME280_temperature;BME280_humidity;BME280_pressure;Samples;Min_cycle;Max_cycle;Signal;HPM_P1;HPM_P2
2023/01/11 00:00:29;;;;;;;2.67;2.28;;;;;;;;;;5073178;28;20546;-56
2023/01/11 00:02:57;;;;;;;5.80;2.57;;;;;;;;;;5073000;28;20199;-57
2023/01/11 00:05:24;;;;;;;6.10;2.90;;;;;;;;;;5073240;28;20537;-56
2023/01/11 00:07:51;;;;;;;2.30;1.83;;;;;;;;;;5073202;28;20553;-57
2023/01/11 00:10:19;;;;;;;3.60;2.23;;;;;;;;;;5073147;28;20460;-57
2023/01/11 00:12:46;;;;;;;5.83;2.10;;;;;;;;;;5073035;28;20457;-52
2023/01/11 00:15:14;;;;;;;7.57;2.60;;;;;;;;;;5072974;28;20537;-57
2023/01/11 00:17:41;;;;;;;6.17;3.47;;;;;;;;;;5072768;28;20447;-55
2023/01/11 00:20:09;;;;;;;11.13;2.83;;;;;;;;;;5073034;28;20480;-54
2023/01/11 00:22:36;;;;;;;6.55;3.00;;;;;;;;;;5073013;28;20451;-58
2023/01/11 00:25:03;;;;;;;5.07;2.10;;;;;;;;;;5072924;28;20202;-56
2023/01/11 00:27:31;;;;;;;2.75;2.20;;;;;;;;;;5072908;28;20446;-57
2023/01/11 00:29:58;;;;;;;7.03;2.58;;;;;;;;;;5072842;28;20555;-57
2023/01/11 00:32:26;;;;;;;6.03;2.30;;;;;;;;;;5072718;28;20200;-57
2023/01/11 00:34:53;;;;;;;6.43;2.40;;;;;;;;;;5072932;28;20547;-58
2023/01/11 00:37:20;;;;;;;6.40;2.53;;;;;;;;;;5072848;28;20450;-57
2023/01/11 00:39:47;;;;;;;7.40;3.20;;;;;;;;;;5072762;28;21000;-57
2023/01/11 00:47:56;;;;;;;7.95;2.72;;;;;;;;;;5075516;28;20442;-58
2023/01/11 00:50:24;;;;;;;7.70;2.50;;;;;;;;;;5076717;28;20195;-58
2023/01/11 00:52:50;;;;;;;4.10;2.63;;;;;;;;;;5076674;28;20508;-57
2023/01/11 00:55:17;;;;;;;6.43;2.20;;;;;;;;;;5076524;28;20624;-58
2023/01/11 00:57:44;;;;;;;2.90;1.83;;;;;;;;;;5076682;28;20821;-58
2023/01/11 01:00:13;;;;;;;7.45;2.28;;;;;;;;;;5076644;28;20483;-58
2023/01/11 01:02:40;;;;;;;7.90;2.38;;;;;;;;;;5076765;28;20232;-58
2023/01/11 01:05:07;;;;;;;4.45;1.95;;;;;;;;;;5076445;28;20214;-58
2023/01/11 01:07:34;;;;;;;7.40;2.60;;;;;;;;;;5076492;28;20192;-57
2023/01/11 01:10:02;;;;;;;5.88;2.42;;;;;;;;;;5076475;28;20441;-55
2023/01/11 01:15:15;;;;;;;8.05;3.53;;;;;;;;;;5076260;28;20198;-58
2023/01/11 01:17:42;;;;;;;3.55;2.08;;;;;;;;;;5076145;28;20196;-57
2023/01/11 01:20:10;;;;;;;7.43;2.27;;;;;;;;;;5075879;28;20219;-56
2023/01/11 01:22:37;;;;;;;3.58;2.00;;;;;;;;;;5076193;28;20542;-56
2023/01/11 01:25:04;;;;;;;7.45;2.42;;;;;;;;;;5076095;28;20283;-57
2023/01/11 01:27:31;;;;;;;3.70;1.98;;;;;;;;;;5076067;28;20199;-57
2023/01/11 01:29:58;;;;;;;3.88;1.75;;;;;;;;;;5075923;28;20291;-57
2023/01/11 01:32:26;;;;;;;9.07;2.87;;;;;;;;;;5075865;28;20220;-55
2023/01/11 01:34:53;;;;;;;5.43;2.20;;;;;;;;;;5075746;28;20914;-55
2023/01/11 01:37:20;;;;;;;3.40;2.15;;;;;;;;;;5075847;28;20586;-56
2023/01/11 01:39:47;;;;;;;4.40;2.07;;;;;;;;;;5075666;28;20226;-54
2023/01/11 01:42:14;;;;;;;9.57;2.53;;;;;;;;;;5075653;28;20538;-58
2023/01/11 01:44:53;;;;;;;7.30;2.50;;;;;;;;;;5075487;28;20842;-58
2023/01/11 01:47:21;;;;;;;3.58;1.98;;;;;;;;;;5075503;28;20462;-58
2023/01/11 01:49:49;;;;;;;3.43;2.10;;;;;;;;;;5075444;28;20287;-56
2023/01/11 01:52:16;;;;;;;4.63;2.30;;;;;;;;;;5075513;28;20482;-55
2023/01/11 01:54:45;;;;;;;7.28;2.47;;;;;;;;;;5075439;28;20295;-57
2023/01/11 01:57:14;;;;;;;4.25;2.20;;;;;;;;;;5075168;28;20228;-57
2023/01/11 01:59:41;;;;;;;6.03;1.90;;;;;;;;;;5075200;28;20216;-54
2023/01/11 02:02:08;;;;;;;4.05;2.67;;;;;;;;;;5075548;28;20466;-55
2023/01/11 02:04:38;;;;;;;6.93;2.30;;;;;;;;;;5075671;28;20195;-55
2023/01/11 02:07:09;;;;;;;3.25;2.00;;;;;;;;;;5075523;28;20200;-57
2023/01/11 02:09:39;;;;;;;6.72;1.83;;;;;;;;;;5075335;28;20246;-58
2023/01/11 02:12:06;;;;;;;3.20;1.52;;;;;;;;;;5075226;28;20698;-59
2023/01/11 02:14:35;;;;;;;3.60;2.30;;;;;;;;;;5075293;28;20279;-57
2023/01/11 02:17:02;;;;;;;5.28;1.98;;;;;;;;;;5075192;28;20195;-58
2023/01/11 02:19:35;;;;;;;6.90;1.60;;;;;;;;;;5075039;28;20307;-57
2023/01/11 02:22:21;;;;;;;3.45;1.80;;;;;;;;;;5075037;28;20200;-57
2023/01/11 02:24:55;;;;;;;2.60;1.90;;;;;;;;;;5074855;28;20195;-58
2023/01/11 02:27:28;;;;;;;4.00;1.55;;;;;;;;;;5075010;28;20449;-55
2023/01/11 02:30:05;;;;;;;2.95;1.55;;;;;;;;;;5074885;28;20233;-54
2023/01/11 02:32:35;;;;;;;3.73;1.27;;;;;;;;;;5074816;28;20200;-56
2023/01/11 02:35:11;;;;;;;8.60;2.67;;;;;;;;;;5074614;28;20477;-58
2023/01/11 02:37:41;;;;;;;4.45;2.20;;;;;;;;;;5074841;28;20196;-57
2023/01/11 02:40:09;;;;;;;3.95;2.03;;;;;;;;;;5074588;28;20224;-58
2023/01/11 02:45:29;;;;;;;4.18;1.55;;;;;;;;;;5074373;28;20234;-57
2023/01/11 02:47:58;;;;;;;12.07;2.53;;;;;;;;;;5074592;28;20385;-58
2023/01/11 02:50:29;;;;;;;5.40;2.10;;;;;;;;;;5074497;28;20595;-57
2023/01/11 02:52:58;;;;;;;3.58;1.80;;;;;;;;;;5074349;28;20455;-57
2023/01/11 02:55:26;;;;;;;3.40;2.20;;;;;;;;;;5074280;28;20194;-58
2023/01/11 02:57:54;;;;;;;1.90;1.40;;;;;;;;;;5074212;28;20549;-56
2023/01/11 03:00:21;;;;;;;2.13;1.70;;;;;;;;;;5073970;28;20217;-58
2023/01/11 03:03:05;;;;;;;2.85;1.75;;;;;;;;;;5074009;28;20978;-58
2023/01/11 03:05:32;;;;;;;5.17;1.60;;;;;;;;;;5074160;28;20559;-57
2023/01/11 03:08:02;;;;;;;6.27;1.50;;;;;;;;;;5073978;28;20551;-57
2023/01/11 03:10:34;;;;;;;8.15;2.25;;;;;;;;;;5073146;28;20541;-57
2023/01/11 03:13:06;;;;;;;5.80;1.65;;;;;;;;;;5074028;28;20529;-59
2023/01/11 03:15:49;;;;;;;4.00;1.70;;;;;;;;;;5073999;28;20238;-57
2023/01/11 03:18:33;;;;;;;4.85;1.55;;;;;;;;;;5073836;28;20195;-58
2023/01/11 03:21:05;;;;;;;4.18;1.70;;;;;;;;;;5073647;28;20537;-57
2023/01/11 03:23:41;;;;;;;3.58;1.60;;;;;;;;;;5073876;28;20541;-57
2023/01/11 03:26:15;;;;;;;8.83;2.03;;;;;;;;;;5073749;28;20206;-55
2023/01/11 03:28:49;;;;;;;4.72;1.58;;;;;;;;;;5073611;28;20496;-57
2023/01/11 03:31:18;;;;;;;2.70;1.70;;;;;;;;;;5073398;28;20202;-55
2023/01/11 03:33:51;;;;;;;2.13;1.50;;;;;;;;;;5073549;28;20350;-57
2023/01/11 03:36:22;;;;;;;7.82;2.70;;;;;;;;;;5073394;28;20567;-56
2023/01/11 03:38:52;;;;;;;2.78;1.67;;;;;;;;;;5073128;28;22495;-56
2023/01/11 03:41:21;;;;;;;8.50;2.03;;;;;;;;;;5073173;28;20223;-56
2023/01/11 03:43:48;;;;;;;1.55;1.33;;;;;;;;;;5072878;28;20515;-53
2023/01/11 03:46:17;;;;;;;5.28;1.60;;;;;;;;;;5073275;28;20663;-55
2023/01/11 03:48:48;;;;;;;2.80;1.35;;;;;;;;;;5073313;28;20299;-57
2023/01/11 03:51:17;;;;;;;3.83;1.50;;;;;;;;;;5073606;28;20277;-55
2023/01/11 03:53:45;;;;;;;3.10;1.40;;;;;;;;;;5073278;28;20284;-53
2023/01/11 03:56:14;;;;;;;3.53;1.50;;;;;;;;;;5073135;28;20197;-56
2023/01/11 03:58:41;;;;;;;3.87;1.27;;;;;;;;;;5072955;28;20454;-53
2023/01/11 04:01:08;;;;;;;5.32;1.52;;;;;;;;;;5073240;28;20478;-56
2023/01/11 04:03:35;;;;;;;6.97;2.10;;;;;;;;;;5073291;28;20201;-56
2023/01/11 04:06:03;;;;;;;3.70;1.37;;;;;;;;;;5073120;28;20196;-54
2023/01/11 04:08:30;;;;;;;6.00;1.73;;;;;;;;;;5073047;28;20450;-54
2023/01/11 04:10:57;;;;;;;4.60;1.93;;;;;;;;;;5072858;28;20462;-53
2023/01/11 04:13:24;;;;;;;4.00;1.60;;;;;;;;;;5073132;28;20508;-59
2023/01/11 04:15:53;;;;;;;5.10;2.57;;;;;;;;;;5073032;28;20458;-53
2023/01/11 04:18:20;;;;;;;2.87;1.93;;;;;;;;;;5072522;28;20943;-56
2023/01/11 04:20:47;;;;;;;3.30;1.67;;;;;;;;;;5072827;28;20492;-57
2023/01/11 04:23:15;;;;;;;2.63;2.00;;;;;;;;;;5072988;28;20831;-57
2023/01/11 04:25:42;;;;;;;3.03;1.43;;;;;;;;;;5072725;28;20201;-55
2023/01/11 04:28:09;;;;;;;2.40;1.77;;;;;;;;;;5072860;28;20541;-57
2023/01/11 04:30:36;;;;;;;3.33;2.07;;;;;;;;;;5072889;28;20289;-56
2023/01/11 04:33:03;;;;;;;3.10;1.77;;;;;;;;;;5072721;28;20461;-56
2023/01/11 04:35:29;;;;;;;2.35;2.00;;;;;;;;;;5072751;28;20754;-56
2023/01/11 04:37:57;;;;;;;4.10;1.50;;;;;;;;;;5072671;28;20197;-57
2023/01/11 04:40:25;;;;;;;5.60;1.90;;;;;;;;;;5072963;28;21029;-54
2023/01/11 04:42:51;;;;;;;1.37;1.27;;;;;;;;;;5072835;28;20551;-57
2023/01/11 04:45:18;;;;;;;7.20;2.10;;;;;;;;;;5072502;28;20481;-54
2023/01/11 04:47:45;;;;;;;1.80;1.27;;;;;;;;;;5072635;28;20456;-57
2023/01/11 04:50:12;;;;;;;2.72;1.63;;;;;;;;;;5072645;28;20553;-54
2023/01/11 04:52:40;;;;;;;3.30;1.70;;;;;;;;;;5072698;28;20188;-55
2023/01/11 04:55:07;;;;;;;4.17;1.47;;;;;;;;;;5072781;28;20452;-57
2023/01/11 04:57:36;;;;;;;5.97;2.00;;;;;;;;;;5072653;28;20460;-56
2023/01/11 05:00:06;;;;;;;2.90;1.55;;;;;;;;;;5072585;28;20498;-56
2023/01/11 05:02:33;;;;;;;4.05;1.70;;;;;;;;;;5072570;28;20192;-56
2023/01/11 05:05:00;;;;;;;3.63;1.80;;;;;;;;;;5072343;28;20195;-57
2023/01/11 05:07:27;;;;;;;5.10;2.20;;;;;;;;;;5072295;28;20547;-55
2023/01/11 05:09:54;;;;;;;5.57;1.83;;;;;;;;;;5072268;28;20211;-57
2023/01/11 05:12:21;;;;;;;3.13;1.80;;;;;;;;;;5072385;28;20442;-56
2023/01/11 05:14:49;;;;;;;4.57;1.90;;;;;;;;;;5072369;28;20541;-57
2023/01/11 05:17:16;;;;;;;3.53;1.77;;;;;;;;;;5072248;28;20453;-56
2023/01/11 05:19:43;;;;;;;3.80;1.40;;;;;;;;;;5072119;28;20472;-56
2023/01/11 05:22:10;;;;;;;5.60;1.90;;;;;;;;;;5072452;28;20457;-56
2023/01/11 05:24:37;;;;;;;4.50;1.60;;;;;;;;;;5072282;28;20815;-56
2023/01/11 05:27:04;;;;;;;2.70;1.67;;;;;;;;;;5072541;28;20550;-54
2023/01/11 05:29:31;;;;;;;2.45;1.40;;;;;;;;;;5072236;28;20461;-56
2023/01/11 05:32:00;;;;;;;4.68;2.00;;;;;;;;;;5072118;28;20279;-57
2023/01/11 05:34:27;;;;;;;4.70;2.00;;;;;;;;;;5075710;28;20538;-57
2023/01/11 05:36:53;;;;;;;4.55;1.67;;;;;;;;;;5075944;28;20457;-57
2023/01/11 05:39:21;;;;;;;2.33;1.77;;;;;;;;;;5075514;28;20195;-57
2023/01/11 05:41:48;;;;;;;2.63;1.40;;;;;;;;;;5075628;28;20195;-57
2023/01/11 05:47:03;;;;;;;4.37;1.67;;;;;;;;;;5075632;28;20446;-54
2023/01/11 05:49:30;;;;;;;3.80;1.87;;;;;;;;;;5075610;28;20838;-56
2023/01/11 05:51:56;;;;;;;4.17;1.60;;;;;;;;;;5075518;28;21009;-55
2023/01/11 05:54:24;;;;;;;4.23;1.77;;;;;;;;;;5075242;28;20446;-57
2023/01/11 05:56:51;;;;;;;3.67;1.70;;;;;;;;;;5075138;28;20861;-56
2023/01/11 05:59:18;;;;;;;6.83;1.73;;;;;;;;;;5075096;28;20544;-56
2023/01/11 06:01:45;;;;;;;1.80;1.57;;;;;;;;;;5075360;28;20457;-59
2023/01/11 06:04:14;;;;;;;2.70;2.43;;;;;;;;;;5075153;28;20469;-56
2023/01/11 06:06:40;;;;;;;2.43;1.37;;;;;;;;;;5075171;28;20455;-54
2023/01/11 06:09:07;;;;;;;3.13;1.70;;;;;;;;;;5075164;28;20543;-57
2023/01/11 06:11:34;;;;;;;2.30;1.57;;;;;;;;;;5074979;28;20893;-57
2023/01/11 06:14:01;;;;;;;2.97;2.30;;;;;;;;;;5074898;28;20450;-56
2023/01/11 06:16:28;;;;;;;1.83;1.50;;;;;;;;;;5075102;28;20984;-57
2023/01/11 06:18:55;;;;;;;2.00;1.70;;;;;;;;;;5075038;28;20953;-56
2023/01/11 06:21:24;;;;;;;2.87;1.47;;;;;;;;;;5074849;28;20573;-55
2023/01/11 06:23:51;;;;;;;3.80;1.43;;;;;;;;;;5074861;28;20549;-56
2023/01/11 06:26:19;;;;;;;2.93;1.73;;;;;;;;;;5074773;28;20788;-57
2023/01/11 06:28:46;;;;;;;2.57;1.53;;;;;;;;;;5074883;28;20448;-57
2023/01/11 06:31:13;;;;;;;1.30;1.20;;;;;;;;;;5074804;28;20546;-57
2023/01/11 06:33:40;;;;;;;5.17;1.60;;;;;;;;;;5074729;28;20454;-57
2023/01/11 06:36:09;;;;;;;1.90;1.63;;;;;;;;;;5074658;28;20455;-58
2023/01/11 06:38:37;;;;;;;6.20;1.87;;;;;;;;;;5074558;28;20895;-56
2023/01/11 06:41:07;;;;;;;2.47;1.53;;;;;;;;;;5074473;28;20528;-57
2023/01/11 06:43:33;;;;;;;3.37;2.03;;;;;;;;;;5074311;28;20440;-57
2023/01/11 06:46:01;;;;;;;3.03;1.77;;;;;;;;;;5073466;28;21095;-55
2023/01/11 06:48:28;;;;;;;2.40;1.67;;;;;;;;;;5074027;28;20444;-56
2023/01/11 06:50:56;;;;;;;2.23;1.43;;;;;;;;;;5073992;28;20944;-57
2023/01/11 06:53:23;;;;;;;4.70;1.70;;;;;;;;;;5074231;28;20483;-55
2023/01/11 06:55:52;;;;;;;3.33;2.00;;;;;;;;;;5074047;28;20597;-57
2023/01/11 06:58:19;;;;;;;7.57;3.03;;;;;;;;;;5074079;28;20542;-56
2023/01/11 07:00:46;;;;;;;3.67;2.20;;;;;;;;;;5074128;28;20479;-57
2023/01/11 07:03:13;;;;;;;3.60;1.83;;;;;;;;;;5074057;28;20456;-55
2023/01/11 07:05:41;;;;;;;2.87;2.60;;;;;;;;;;5073906;28;20488;-56
2023/01/11 07:08:08;;;;;;;2.73;1.70;;;;;;;;;;5073784;28;20451;-56
2023/01/11 07:10:35;;;;;;;2.00;1.80;;;;;;;;;;5073938;28;20504;-57
2023/01/11 07:13:03;;;;;;;1.87;1.60;;;;;;;;;;5073876;28;20525;-57
2023/01/11 07:15:30;;;;;;;5.37;1.53;;;;;;;;;;5073780;28;20545;-55
2023/01/11 07:17:58;;;;;;;4.60;1.80;;;;;;;;;;5073728;28;20448;-56
2023/01/11 07:20:25;;;;;;;7.00;2.27;;;;;;;;;;5073524;28;20996;-53
2023/01/11 07:22:53;;;;;;;2.80;1.83;;;;;;;;;;5073770;28;20829;-56
2023/01/11 07:25:20;;;;;;;6.23;2.40;;;;;;;;;;5073479;28;20493;-57
2023/01/11 07:27:46;;;;;;;5.83;2.40;;;;;;;;;;5073484;28;20550;-57
2023/01/11 07:30:15;;;;;;;6.63;2.20;;;;;;;;;;5073335;28;20449;-57
2023/01/11 07:32:42;;;;;;;3.13;2.10;;;;;;;;;;5073169;28;20545;-57
2023/01/11 07:35:09;;;;;;;4.83;2.30;;;;;;;;;;5073049;28;20538;-56
2023/01/11 07:37:40;;;;;;;2.90;1.63;;;;;;;;;;5073386;28;20538;-54
2023/01/11 07:40:07;;;;;;;4.60;2.07;;;;;;;;;;5072957;28;20537;-57
2023/01/11 07:45:20;;;;;;;2.03;1.50;;;;;;;;;;5073057;28;20830;-55
2023/01/11 07:47:49;;;;;;;3.60;2.30;;;;;;;;;;5073040;28;20458;-55
2023/01/11 07:50:16;;;;;;;3.80;2.00;;;;;;;;;;5073217;28;20451;-57
2023/01/11 07:52:47;;;;;;;2.30;1.67;;;;;;;;;;5073101;28;20539;-56
2023/01/11 07:55:14;;;;;;;1.80;1.70;;;;;;;;;;5072810;28;20462;-56
2023/01/11 07:57:41;;;;;;;4.60;1.60;;;;;;;;;;5072891;28;20447;-56
2023/01/11 08:00:08;;;;;;;3.83;1.70;;;;;;;;;;5072687;28;20450;-54
2023/01/11 08:02:36;;;;;;;3.00;2.07;;;;;;;;;;5072900;28;20565;-57
2023/01/11 08:05:03;;;;;;;5.93;1.40;;;;;;;;;;5072748;28;20538;-56
2023/01/11 08:07:30;;;;;;;2.40;1.43;;;;;;;;;;5072835;28;20538;-57
2023/01/11 08:09:57;;;;;;;2.50;1.63;;;;;;;;;;5072888;28;20533;-57
2023/01/11 08:15:12;;;;;;;2.53;1.83;;;;;;;;;;5072724;28;20434;-58
2023/01/11 08:17:41;;;;;;;3.63;1.97;;;;;;;;;;5072512;28;20519;-61
2023/01/11 08:20:08;;;;;;;3.03;1.57;;;;;;;;;;5072679;28;20483;-64
2023/01/11 08:22:35;;;;;;;3.23;1.50;;;;;;;;;;5072730;28;20826;-61
2023/01/11 08:25:02;;;;;;;4.00;2.00;;;;;;;;;;5071704;28;20545;-62
2023/01/11 08:27:29;;;;;;;3.20;2.13;;;;;;;;;;5072749;28;20192;-63
2023/01/11 08:29:56;;;;;;;5.83;1.80;;;;;;;;;;5072351;28;20490;-64
2023/01/11 08:32:23;;;;;;;3.57;1.20;;;;;;;;;;5072538;28;20470;-63
2023/01/11 08:34:51;;;;;;;6.33;1.80;;;;;;;;;;5072326;28;20827;-61
2023/01/11 08:37:18;;;;;;;4.43;1.63;;;;;;;;;;5072419;28;20999;-63
2023/01/11 08:39:47;;;;;;;1.80;1.70;;;;;;;;;;5072364;28;20541;-61
2023/01/11 08:42:14;;;;;;;1.80;1.60;;;;;;;;;;5072583;28;20571;-60
2023/01/11 08:44:40;;;;;;;4.20;1.30;;;;;;;;;;5072450;28;20574;-59
2023/01/11 08:47:07;;;;;;;2.03;1.53;;;;;;;;;;5072600;28;21019;-58
2023/01/11 08:49:34;;;;;;;5.30;1.90;;;;;;;;;;5072272;28;20533;-64
2023/01/11 08:52:03;;;;;;;4.97;1.50;;;;;;;;;;5072799;28;20542;-59
2023/01/11 08:54:30;;;;;;;3.23;1.63;;;;;;;;;;5072222;28;20934;-59
2023/01/11 08:56:57;;;;;;;1.57;1.40;;;;;;;;;;5072435;28;20453;-62
2023/01/11 08:59:23;;;;;;;5.30;1.50;;;;;;;;;;5072549;28;20448;-61
2023/01/11 09:01:50;;;;;;;3.17;1.27;;;;;;;;;;5072362;28;20566;-59
2023/01/11 09:04:17;;;;;;;2.00;1.20;;;;;;;;;;5072211;28;20789;-59
2023/01/11 09:06:44;;;;;;;2.33;2.13;;;;;;;;;;5072036;28;20458;-59
2023/01/11 09:09:12;;;;;;;2.23;1.67;;;;;;;;;;5075837;28;20539;-61
2023/01/11 09:11:55;;;;;;;4.03;1.77;;;;;;;;;;5076225;28;20549;-60
2023/01/11 09:14:23;;;;;;;2.37;1.50;;;;;;;;;;5075706;28;20451;-59
2023/01/11 09:16:50;;;;;;;7.00;3.70;;;;;;;;;;5075961;28;20463;-62
2023/01/11 09:19:17;;;;;;;2.43;2.23;;;;;;;;;;5075697;28;21021;-64
2023/01/11 09:21:44;;;;;;;5.53;2.50;;;;;;;;;;5075733;28;20593;-59
2023/01/11 09:24:12;;;;;;;6.60;2.23;;;;;;;;;;5075896;28;20448;-63
2023/01/11 09:26:40;;;;;;;3.70;1.70;;;;;;;;;;5075893;28;20541;-66
2023/01/11 09:29:07;;;;;;;3.53;1.60;;;;;;;;;;5075674;28;20807;-61
2023/01/11 09:31:34;;;;;;;3.20;1.40;;;;;;;;;;5075597;28;20455;-61
2023/01/11 09:34:02;;;;;;;1.60;1.50;;;;;;;;;;5075506;28;20609;-58
2023/01/11 09:36:30;;;;;;;2.37;1.70;;;;;;;;;;5075812;28;20455;-56
2023/01/11 09:39:00;;;;;;;3.33;1.47;;;;;;;;;;5075463;28;20448;-57
2023/01/11 09:41:34;;;;;;;2.50;1.17;;;;;;;;;;5075365;28;20483;-60
2023/01/11 09:44:09;;;;;;;4.43;1.70;;;;;;;;;;5075405;28;20514;-59
2023/01/11 09:46:40;;;;;;;1.37;1.17;;;;;;;;;;5075610;28;20443;-56
2023/01/11 09:49:11;;;;;;;2.43;1.33;;;;;;;;;;5075497;28;20831;-58
2023/01/11 09:51:40;;;;;;;2.03;1.83;;;;;;;;;;5075480;28;20878;-61
2023/01/11 09:54:09;;;;;;;2.93;1.40;;;;;;;;;;5075350;28;20538;-59
2023/01/11 09:56:41;;;;;;;1.87;1.30;;;;;;;;;;5075150;28;20458;-58
2023/01/11 09:59:18;;;;;;;1.23;1.13;;;;;;;;;;5075098;28;20501;-63
2023/01/11 10:01:48;;;;;;;1.70;1.60;;;;;;;;;;5075430;28;21003;-65
2023/01/11 10:04:35;;;;;;;1.37;1.20;;;;;;;;;;5075211;28;20452;-61
2023/01/11 10:07:14;;;;;;;2.73;1.53;;;;;;;;;;5075089;28;20546;-61
2023/01/11 10:09:46;;;;;;;2.13;1.20;;;;;;;;;;5075177;28;20447;-60
2023/01/11 10:12:20;;;;;;;2.37;1.50;;;;;;;;;;5075102;28;20452;-60
2023/01/11 10:14:56;;;;;;;1.23;1.13;;;;;;;;;;5075165;28;20443;-60
2023/01/11 10:17:31;;;;;;;1.73;1.63;;;;;;;;;;5074738;28;20509;-61
2023/01/11 10:20:01;;;;;;;2.40;1.20;;;;;;;;;;5075059;28;20531;-61
2023/01/11 10:22:31;;;;;;;2.43;1.33;;;;;;;;;;5074983;28;20484;-60
2023/01/11 10:25:02;;;;;;;2.30;1.10;;;;;;;;;;5074919;28;20525;-61
2023/01/11 10:27:34;;;;;;;1.40;1.10;;;;;;;;;;5074966;28;20448;-60
2023/01/11 10:30:31;;;;;;;1.40;1.30;;;;;;;;;;5074526;28;20444;-59
2023/01/11 10:33:12;;;;;;;1.20;0.80;;;;;;;;;;5074809;28;20456;-60
2023/01/11 10:36:09;;;;;;;1.20;1.10;;;;;;;;;;5074681;28;20938;-59
2023/01/11 10:38:48;;;;;;;1.20;1.10;;;;;;;;;;5074154;28;20577;-63
2023/01/11 10:41:24;;;;;;;1.10;1.00;;;;;;;;;;5074395;28;20475;-61
2023/01/11 10:43:56;;;;;;;1.20;1.10;;;;;;;;;;5074508;28;20452;-62
2023/01/11 10:46:25;;;;;;;1.27;1.17;;;;;;;;;;5074517;28;20459;-60
2023/01/11 10:48:58;;;;;;;2.50;1.03;;;;;;;;;;5074245;28;20455;-59
2023/01/11 10:51:28;;;;;;;1.20;1.10;;;;;;;;;;5074384;28;20452;-59
2023/01/11 10:53:59;;;;;;;2.77;1.10;;;;;;;;;;5074113;28;20506;-59
2023/01/11 10:56:30;;;;;;;1.20;1.00;;;;;;;;;;5074389;28;20811;-58
2023/01/11 10:59:06;;;;;;;0.97;0.90;;;;;;;;;;5074057;28;20457;-63
2023/01/11 11:01:39;;;;;;;1.97;1.17;;;;;;;;;;5073798;28;20496;-57
2023/01/11 11:04:12;;;;;;;1.27;1.10;;;;;;;;;;5073806;28;20931;-58
2023/01/11 11:06:43;;;;;;;1.77;1.40;;;;;;;;;;5074144;28;20543;-58
2023/01/11 11:09:14;;;;;;;2.93;1.50;;;;;;;;;;5074131;28;20536;-58
2023/01/11 11:11:45;;;;;;;3.23;1.23;;;;;;;;;;5073897;28;20542;-64
2023/01/11 11:14:19;;;;;;;1.30;1.20;;;;;;;;;;5074257;28;20502;-64
2023/01/11 11:16:52;;;;;;;2.80;1.47;;;;;;;;;;5073772;28;20448;-61
2023/01/11 11:19:21;;;;;;;1.20;1.10;;;;;;;;;;5073501;28;20799;-58
2023/01/11 11:21:48;;;;;;;2.13;1.00;;;;;;;;;;5073628;28;20481;-55
2023/01/11 11:24:17;;;;;;;1.90;1.20;;;;;;;;;;5073500;28;20815;-55
2023/01/11 11:26:47;;;;;;;2.40;1.10;;;;;;;;;;5073746;28;20539;-59
2023/01/11 11:29:20;;;;;;;1.30;1.20;;;;;;;;;;5073688;28;20810;-57
2023/01/11 11:31:48;;;;;;;1.77;1.10;;;;;;;;;;5073048;28;20458;-57
2023/01/11 11:34:16;;;;;;;1.43;1.33;;;;;;;;;;5073505;28;20440;-59
2023/01/11 11:36:44;;;;;;;1.30;1.20;;;;;;;;;;5073226;28;20452;-59
2023/01/11 11:39:17;;;;;;;1.30;1.10;;;;;;;;;;5072648;28;20453;-60
2023/01/11 11:41:48;;;;;;;1.40;1.20;;;;;;;;;;5073259;28;20312;-61
2023/01/11 11:44:18;;;;;;;1.20;1.03;;;;;;;;;;5073039;28;20840;-56
2023/01/11 11:46:56;;;;;;;2.30;1.10;;;;;;;;;;5072540;28;20544;-59
2023/01/11 11:49:23;;;;;;;1.50;1.15;;;;;;;;;;5072462;28;20453;-63
2023/01/11 11:51:51;;;;;;;1.40;0.90;;;;;;;;;;5073255;28;20548;-59
2023/01/11 11:54:20;;;;;;;1.40;1.10;;;;;;;;;;5073242;28;20466;-58
2023/01/11 11:56:48;;;;;;;3.03;1.17;;;;;;;;;;5073090;28;20448;-59
2023/01/11 11:59:18;;;;;;;1.80;1.47;;;;;;;;;;5072991;28;20982;-59
2023/01/11 12:01:47;;;;;;;2.50;1.50;;;;;;;;;;5072688;28;20599;-59
2023/01/11 12:04:15;;;;;;;2.17;1.27;;;;;;;;;;5073044;28;20459;-61
2023/01/11 12:06:42;;;;;;;1.10;1.00;;;;;;;;;;5073057;28;20846;-58
2023/01/11 12:09:11;;;;;;;3.07;1.27;;;;;;;;;;5072749;28;20795;-59
2023/01/11 12:11:41;;;;;;;1.20;1.10;;;;;;;;;;5073118;28;20487;-60
2023/01/11 12:14:17;;;;;;;2.80;1.20;;;;;;;;;;5072818;28;20448;-69
2023/01/11 12:16:45;;;;;;;1.83;1.00;;;;;;;;;;5072930;28;20448;-64
2023/01/11 12:19:25;;;;;;;2.00;1.10;;;;;;;;;;5072639;28;20866;-57
2023/01/11 12:21:52;;;;;;;1.20;1.10;;;;;;;;;;5072487;28;20605;-59
2023/01/11 12:24:21;;;;;;;1.27;1.10;;;;;;;;;;5072745;28;20543;-59
2023/01/11 12:26:53;;;;;;;1.23;1.13;;;;;;;;;;5072812;28;20534;-60
2023/01/11 12:29:31;;;;;;;2.07;1.10;;;;;;;;;;5073059;28;20455;-60
2023/01/11 12:32:04;;;;;;;1.10;1.00;;;;;;;;;;5072877;28;20508;-57
2023/01/11 12:34:36;;;;;;;1.00;1.00;;;;;;;;;;5072676;28;20484;-66
2023/01/11 12:37:07;;;;;;;2.10;1.37;;;;;;;;;;5072516;28;20448;-61
2023/01/11 12:39:39;;;;;;;1.30;1.20;;;;;;;;;;5072698;28;20444;-60
2023/01/11 12:42:26;;;;;;;1.70;1.60;;;;;;;;;;5072722;28;21013;-61
2023/01/11 12:45:02;;;;;;;3.17;1.80;;;;;;;;;;5076617;28;20838;-60
2023/01/11 12:47:44;;;;;;;1.50;1.40;;;;;;;;;;5076697;28;20479;-63
2023/01/11 12:50:14;;;;;;;2.23;2.03;;;;;;;;;;5076624;28;20950;-63
2023/01/11 12:52:46;;;;;;;1.87;1.70;;;;;;;;;;5076560;28;20961;-61
2023/01/11 12:55:19;;;;;;;1.63;1.50;;;;;;;;;;5077757;28;20454;-62
2023/01/11 12:57:59;;;;;;;1.60;1.40;;;;;;;;;;5076538;28;20451;-55
2023/01/11 13:00:32;;;;;;;4.07;1.60;;;;;;;;;;5076473;28;20458;-61
2023/01/11 13:03:09;;;;;;;2.13;1.53;;;;;;;;;;5076388;28;20483;-63
2023/01/11 13:05:40;;;;;;;1.70;1.30;;;;;;;;;;5076196;28;20479;-63
2023/01/11 13:08:12;;;;;;;1.83;1.70;;;;;;;;;;5076185;28;20447;-63
2023/01/11 13:10:48;;;;;;;2.10;1.40;;;;;;;;;;5076112;28;20454;-61
2023/01/11 13:13:16;;;;;;;2.47;1.33;;;;;;;;;;5088181;28;20482;-61
2023/01/11 13:15:53;;;;;;;2.10;1.40;;;;;;;;;;5096301;28;20454;-61
2023/01/11 13:18:23;;;;;;;2.40;1.80;;;;;;;;;;5096619;28;20458;-59
2023/01/11 13:20:52;;;;;;;1.30;1.20;;;;;;;;;;5096149;28;20909;-59
2023/01/11 13:23:24;;;;;;;1.60;1.40;;;;;;;;;;5096275;28;20478;-59
2023/01/11 13:25:52;;;;;;;1.47;1.37;;;;;;;;;;5096274;28;20447;-58
2023/01/11 13:28:22;;;;;;;1.90;1.80;;;;;;;;;;5095882;28;20496;-58
2023/01/11 13:30:51;;;;;;;1.73;1.60;;;;;;;;;;5096369;28;20447;-59
2023/01/11 13:33:21;;;;;;;3.53;2.10;;;;;;;;;;5095646;28;20457;-58
2023/01/11 13:35:50;;;;;;;2.10;2.00;;;;;;;;;;5096446;28;20868;-58
2023/01/11 13:38:25;;;;;;;2.60;2.10;;;;;;;;;;5096034;28;20537;-58
2023/01/11 13:40:53;;;;;;;2.50;2.23;;;;;;;;;;5096043;28;20465;-57
2023/01/11 13:43:22;;;;;;;2.00;1.90;;;;;;;;;;5095777;28;20485;-62
2023/01/11 13:45:52;;;;;;;2.07;1.97;;;;;;;;;;5095511;28;20513;-58
2023/01/11 13:48:23;;;;;;;2.37;2.17;;;;;;;;;;5095411;28;20940;-58
2023/01/11 13:50:53;;;;;;;2.83;2.50;;;;;;;;;;5095801;28;20447;-58
2023/01/11 13:53:25;;;;;;;2.20;2.00;;;;;;;;;;5094736;28;21025;-58
2023/01/11 13:55:57;;;;;;;2.07;1.87;;;;;;;;;;5095575;28;20950;-58
2023/01/11 13:58:27;;;;;;;2.67;2.47;;;;;;;;;;5095474;28;20458;-58
2023/01/11 14:00:59;;;;;;;2.27;2.07;;;;;;;;;;5095590;28;20451;-64
2023/01/11 14:03:28;;;;;;;3.50;2.30;;;;;;;;;;5095587;28;20933;-64
2023/01/11 14:06:02;;;;;;;2.10;2.00;;;;;;;;;;5095579;28;20481;-58
2023/01/11 14:08:45;;;;;;;1.93;1.83;;;;;;;;;;5095360;28;20468;-56
2023/01/11 14:11:15;;;;;;;2.17;2.07;;;;;;;;;;5095590;28;20921;-56
2023/01/11 14:16:38;;;;;;;2.27;2.10;;;;;;;;;;5093519;28;20446;-57
2023/01/11 14:19:09;;;;;;;2.07;1.97;;;;;;;;;;5095312;28;20545;-57
2023/01/11 14:21:40;;;;;;;2.40;1.77;;;;;;;;;;5095507;28;20777;-57
2023/01/11 14:24:08;;;;;;;1.60;1.50;;;;;;;;;;5095254;28;20561;-57
2023/01/11 14:26:44;;;;;;;2.90;2.20;;;;;;;;;;5095249;28;20457;-57
2023/01/11 14:29:16;;;;;;;2.10;1.90;;;;;;;;;;5095167;28;20453;-57
2023/01/11 14:31:52;;;;;;;5.30;1.73;;;;;;;;;;5094889;28;20528;-56
2023/01/11 14:34:37;;;;;;;1.97;1.77;;;;;;;;;;5095089;28;20533;-58
2023/01/11 14:37:17;;;;;;;1.73;1.47;;;;;;;;;;5094845;28;20458;-57
2023/01/11 14:39:54;;;;;;;1.50;1.40;;;;;;;;;;5094760;28;20874;-58
2023/01/11 14:42:28;;;;;;;1.73;1.60;;;;;;;;;;5094707;28;20918;-56
2023/01/11 14:45:03;;;;;;;2.60;1.37;;;;;;;;;;5094655;28;20567;-54
2023/01/11 14:47:39;;;;;;;1.27;1.17;;;;;;;;;;5094771;28;20446;-56
2023/01/11 14:50:14;;;;;;;1.50;1.40;;;;;;;;;;5094666;28;20453;-56
2023/01/11 14:52:42;;;;;;;1.20;1.10;;;;;;;;;;5094613;28;21005;-57
2023/01/11 14:55:15;;;;;;;2.03;1.10;;;;;;;;;;5094529;28;20473;-57
2023/01/11 14:57:43;;;;;;;1.90;1.80;;;;;;;;;;5094723;28;20455;-57
2023/01/11 15:00:28;;;;;;;3.10;1.93;;;;;;;;;;5094446;28;20884;-57
2023/01/11 15:03:19;;;;;;;1.53;1.43;;;;;;;;;;5094111;28;20577;-57
2023/01/11 15:05:47;;;;;;;1.50;1.40;;;;;;;;;;5093227;28;20464;-56
2023/01/11 15:08:22;;;;;;;1.40;1.30;;;;;;;;;;5094382;28;20443;-57
2023/01/11 15:10:56;;;;;;;1.80;1.70;;;;;;;;;;5094290;28;20482;-56
2023/01/11 15:13:24;;;;;;;1.40;1.30;;;;;;;;;;5094277;28;20447;-58
2023/01/11 15:18:45;;;;;;;2.63;2.30;;;;;;;;;;5094135;28;20536;-57
2023/01/11 15:21:15;;;;;;;2.03;1.70;;;;;;;;;;5094211;28;20457;-57
2023/01/11 15:23:47;;;;;;;1.47;1.37;;;;;;;;;;5093893;28;20573;-55